Hopkins, Missouri
Current Conditions -  °F | °C
As of 8:15 AM on Monday 24 Nov 2014 (Local Time) from KICL Reporting Station
Overcast Overcast  
Wind Chill: -8°   Ceiling: 2900
Heat Index: -1°   Visibility: 10mi
Dew Point: -6°   Wind: 18mph
Humidity: 69%   Direction: 310°NW
Pressure: 29.64"   Gusts: NA
Location:  40.55°N, 94.82°W
Report Text: KICL 241415Z AUTO 31016KT 10SM OVC029 M01/M06 A2964 RMK AO2
Loading
Personal Weather Stations






























Interactive Weather Map New forecast layout! Learn more

10-Day Weather Forecast

Advertisements
Track Severe Weather on mobile